Time;durP1;ratioP1;P1;durP2;ratioP2;P2;SDS_P1;SDS_P2;PMS_P1;PMS_P2;Temp;Humidity;BMP_temperature;BMP_pressure;BME280_temperature;BME280_humidity;BME280_pressure;Samples;Min_cycle;Max_cycle;Signal;HPM_P1;HPM_P2
2023/12/19 00:00:27;;;;;;;;;;;;;;;14.58;99.39;101874.03;7304794;19;20422;-67
2023/12/19 00:02:58;;;;;;;;;;;;;;;14.61;99.09;101868.44;7321183;19;19911;-68
2023/12/19 00:05:25;;;;;;;;;;;;;;;14.57;99.00;101861.81;7307351;19;19930;-68
2023/12/19 00:07:52;;;;;;;;;;;;;;;14.56;99.29;101862.78;7289831;19;20813;-68
2023/12/19 00:10:18;;;;;;;;;;;;;;;14.59;99.00;101862.47;7302401;19;20121;-68
2023/12/19 00:12:46;;;;;;;;;;;;;;;14.62;99.84;101859.53;7302169;19;20586;-68
2023/12/19 00:15:13;;;;;;;;;;;;;;;14.59;99.56;101862.47;7290430;19;19918;-69
2023/12/19 00:17:40;;;;;;;;;;;;;;;14.59;99.51;101851.88;7309308;19;19915;-67
2023/12/19 00:20:09;;;;;;;;;;;;;;;14.57;99.38;101853.84;7308018;19;19982;-68
2023/12/19 00:22:36;;;;;;;;;;;;;;;14.59;99.41;101859.81;7287197;19;19934;-68
2023/12/19 00:25:03;;;;;;;;;;;;;;;14.63;99.91;101857.72;7300842;19;20886;-68
2023/12/19 00:27:30;;;;;;;;;;;;;;;14.53;99.76;101844.53;7295590;19;19948;-67
2023/12/19 00:29:57;;;;;;;;;;;;;;;14.55;99.74;101843.41;7299208;19;19919;-68
2023/12/19 00:32:23;;;;;;;;;;;;;;;14.58;99.43;101849.38;7294660;19;19923;-67
2023/12/19 00:34:50;;;;;;;;;;;;;;;14.60;99.48;101842.94;7305937;19;19999;-67
2023/12/19 00:37:17;;;;;;;;;;;;;;;14.57;99.65;101840.63;7294521;19;19930;-68
2023/12/19 00:39:44;;;;;;;;;;;;;;;14.54;99.59;101840.91;7290332;19;19945;-67
2023/12/19 00:42:11;;;;;;;;;;;;;;;14.55;99.70;101840.75;7294866;19;20791;-67
2023/12/19 00:44:41;;;;;;;;;;;;;;;14.53;99.61;101831.28;7278406;19;19915;-68
2023/12/19 00:47:09;;;;;;;;;;;;;;;14.55;99.71;101827.50;7301683;19;20013;-68
2023/12/19 00:49:36;;;;;;;;;;;;;;;14.57;99.68;101821.22;7294859;19;19994;-69
2023/12/19 00:52:03;;;;;;;;;;;;;;;14.57;99.85;101835.31;7300406;19;19990;-67
2023/12/19 00:54:30;;;;;;;;;;;;;;;14.54;99.95;101820.53;7294259;19;19974;-68
2023/12/19 00:56:58;;;;;;;;;;;;;;;14.52;100.00;101825.19;7287379;19;19923;-68
2023/12/19 00:59:24;;;;;;;;;;;;;;;14.52;100.00;101817.25;7288646;19;19923;-67
2023/12/19 01:01:51;;;;;;;;;;;;;;;14.47;100.00;101819.50;7301739;19;19926;-67
2023/12/19 01:04:19;;;;;;;;;;;;;;;14.52;100.00;101825.19;7288343;19;19930;-68
2023/12/19 01:06:47;;;;;;;;;;;;;;;14.54;100.00;101819.72;7293770;19;19919;-67
2023/12/19 01:09:19;;;;;;;;;;;;;;;14.54;100.00;101809.94;7289440;19;20409;-67
2023/12/19 01:11:46;;;;;;;;;;;;;;;14.57;100.00;101815.94;7309695;19;20048;-67
2023/12/19 01:14:12;;;;;;;;;;;;;;;14.58;100.00;101802.53;7303459;19;19925;-68
2023/12/19 01:16:39;;;;;;;;;;;;;;;14.58;100.00;101801.72;7285717;19;20948;-68
2023/12/19 01:19:09;;;;;;;;;;;;;;;14.59;100.00;101793.59;7287884;19;19938;-69
2023/12/19 01:21:37;;;;;;;;;;;;;;;14.59;100.00;101800.69;7284814;19;19915;-68
2023/12/19 01:24:04;;;;;;;;;;;;;;;14.54;100.00;101790.56;7289510;19;20551;-68
2023/12/19 01:26:31;;;;;;;;;;;;;;;14.53;100.00;101789.75;7291319;19;19922;-68
2023/12/19 01:28:58;;;;;;;;;;;;;;;14.55;100.00;101786.94;7287328;19;19934;-67
2023/12/19 01:31:25;;;;;;;;;;;;;;;14.52;100.00;101790.75;7296958;19;19922;-67
2023/12/19 01:33:52;;;;;;;;;;;;;;;14.52;100.00;101784.63;7298095;19;19926;-67
2023/12/19 01:36:20;;;;;;;;;;;;;;;14.58;100.00;101785.81;7293059;19;19961;-68
2023/12/19 01:38:47;;;;;;;;;;;;;;;14.58;100.00;101781.31;7294672;19;19915;-68
2023/12/19 01:41:14;;;;;;;;;;;;;;;14.62;100.00;101782.69;7298380;19;19919;-68
2023/12/19 01:43:40;;;;;;;;;;;;;;;14.61;100.00;101782.84;7295624;19;20981;-68
2023/12/19 01:46:13;;;;;;;;;;;;;;;14.61;100.00;101786.34;7290265;19;19966;-67
2023/12/19 01:48:39;;;;;;;;;;;;;;;14.59;99.91;101771.56;7292877;19;19915;-68
2023/12/19 01:51:08;;;;;;;;;;;;;;;14.62;100.00;101779.22;7290855;19;19919;-68
2023/12/19 01:53:35;;;;;;;;;;;;;;;14.65;100.00;101778.91;7285368;19;20533;-68
2023/12/19 01:56:02;;;;;;;;;;;;;;;14.68;99.98;101773.31;7283831;19;20017;-67
2023/12/19 01:58:30;;;;;;;;;;;;;;;14.63;99.81;101775.59;7291540;19;21118;-67
2023/12/19 02:00:57;;;;;;;;;;;;;;;14.62;99.63;101774.75;7290677;19;20067;-67
2023/12/19 02:03:24;;;;;;;;;;;;;;;14.58;100.00;101769.94;7296603;19;20018;-68
2023/12/19 02:05:52;;;;;;;;;;;;;;;14.60;100.00;101768.78;7285837;19;19926;-67
2023/12/19 02:08:19;;;;;;;;;;;;;;;14.63;100.00;101763.16;7301836;19;19923;-68
2023/12/19 02:10:46;;;;;;;;;;;;;;;14.65;100.00;101769.13;7305108;19;19947;-68
2023/12/19 02:13:13;;;;;;;;;;;;;;;14.68;100.00;101766.16;7292588;19;20458;-68
2023/12/19 02:15:40;;;;;;;;;;;;;;;14.71;100.00;101768.50;7294008;19;19921;-67
2023/12/19 02:18:17;;;;;;;;;;;;;;;14.72;100.00;101770.19;7287578;19;20040;-67
2023/12/19 02:20:44;;;;;;;;;;;;;;;14.71;100.00;101771.16;7293398;19;20035;-68
2023/12/19 02:23:12;;;;;;;;;;;;;;;14.68;100.00;101768.81;7285318;19;19925;-67
2023/12/19 02:25:39;;;;;;;;;;;;;;;14.63;100.00;101759.69;7283960;19;19979;-68
2023/12/19 02:28:07;;;;;;;;;;;;;;;14.60;100.00;101752.03;7294475;19;19930;-67
2023/12/19 02:30:37;;;;;;;;;;;;;;;14.60;100.00;101755.53;7292770;19;19915;-69
2023/12/19 02:33:08;;;;;;;;;;;;;;;14.59;100.00;101740.63;7288490;19;20389;-67
2023/12/19 02:35:35;;;;;;;;;;;;;;;14.52;100.00;101739.59;7296212;19;20535;-68
2023/12/19 02:38:02;;;;;;;;;;;;;;;14.49;100.00;101739.88;7300644;19;20673;-67
2023/12/19 02:40:29;;;;;;;;;;;;;;;14.49;100.00;101735.44;7293734;19;20467;-68
2023/12/19 02:42:56;;;;;;;;;;;;;;;14.53;100.00;101738.59;7285513;19;20735;-68
2023/12/19 02:45:22;;;;;;;;;;;;;;;14.51;100.00;101740.56;7296829;19;21096;-69
2023/12/19 02:47:49;;;;;;;;;;;;;;;14.50;100.00;101734.44;7296344;19;19923;-69
2023/12/19 02:50:16;;;;;;;;;;;;;;;14.47;100.00;101729.47;7285823;19;20912;-67
2023/12/19 02:52:43;;;;;;;;;;;;;;;14.44;100.00;101732.41;7298245;19;19922;-68
2023/12/19 02:55:10;;;;;;;;;;;;;;;14.44;100.00;101713.88;7307794;19;21810;-67
2023/12/19 02:57:38;;;;;;;;;;;;;;;14.43;100.00;101720.16;7288640;19;22148;-67
2023/12/19 03:00:06;;;;;;;;;;;;;;;14.39;100.00;101718.81;7300322;19;20510;-68
2023/12/19 03:02:33;;;;;;;;;;;;;;;14.36;100.00;101716.47;7291489;19;19942;-67
2023/12/19 03:05:00;;;;;;;;;;;;;;;14.37;100.00;101714.66;7281687;19;19919;-68
2023/12/19 03:07:27;;;;;;;;;;;;;;;14.38;100.00;101701.25;7303452;19;19927;-68
2023/12/19 03:09:54;;;;;;;;;;;;;;;14.37;100.00;101698.78;7294171;19;20134;-67
2023/12/19 03:12:20;;;;;;;;;;;;;;;14.36;100.00;101691.78;7304879;19;19914;-67
2023/12/19 03:14:47;;;;;;;;;;;;;;;14.32;100.00;101691.28;7302743;19;20354;-67
2023/12/19 03:17:14;;;;;;;;;;;;;;;14.30;100.00;101668.56;7299307;19;21494;-68
2023/12/19 03:19:41;;;;;;;;;;;;;;;14.29;100.00;101662.44;7305044;19;19938;-67
2023/12/19 03:22:08;;;;;;;;;;;;;;;14.29;100.00;101658.97;7287059;19;19918;-67
2023/12/19 03:24:39;;;;;;;;;;;;;;;14.31;100.00;101657.00;7305817;19;20561;-67
2023/12/19 03:27:06;;;;;;;;;;;;;;;14.26;100.00;101665.41;7301324;19;20532;-68
2023/12/19 03:29:34;;;;;;;;;;;;;;;14.26;100.00;101668.06;7309880;19;19941;-68
2023/12/19 03:32:01;;;;;;;;;;;;;;;14.21;100.00;101651.81;7288943;19;19918;-67
2023/12/19 03:34:27;;;;;;;;;;;;;;;14.21;100.00;101638.59;7297218;19;19914;-67
2023/12/19 03:36:57;;;;;;;;;;;;;;;14.23;100.00;101638.41;7299107;19;21949;-67
2023/12/19 03:39:23;;;;;;;;;;;;;;;14.24;100.00;101637.44;7300463;19;19927;-68
2023/12/19 03:41:50;;;;;;;;;;;;;;;14.23;100.00;101622.53;7292634;19;19949;-69
2023/12/19 03:44:44;;;;;;;;;;;;;;;14.24;100.00;101627.66;7289314;19;20124;-68
2023/12/19 03:47:11;;;;;;;;;;;;;;;14.22;100.00;101624.34;7292624;19;19915;-67
2023/12/19 03:49:38;;;;;;;;;;;;;;;14.26;100.00;101622.22;7294455;19;20005;-68
2023/12/19 03:52:06;;;;;;;;;;;;;;;14.29;100.00;101621.91;7301255;19;19978;-67
2023/12/19 03:54:33;;;;;;;;;;;;;;;14.29;100.00;101611.31;7297972;19;19910;-67
2023/12/19 03:57:00;;;;;;;;;;;;;;;14.28;100.00;101612.28;7291309;19;20352;-68
2023/12/19 03:59:27;;;;;;;;;;;;;;;14.27;100.00;101606.19;7293185;19;20870;-68
2023/12/19 04:01:56;;;;;;;;;;;;;;;14.28;100.00;101594.59;7303260;19;19982;-68
2023/12/19 04:04:23;;;;;;;;;;;;;;;14.30;100.00;101607.69;7302215;19;19930;-67
2023/12/19 04:06:52;;;;;;;;;;;;;;;14.30;100.00;101591.81;7308760;19;19925;-67
2023/12/19 04:09:21;;;;;;;;;;;;;;;14.29;100.00;101600.72;7297868;19;19929;-67
2023/12/19 04:11:49;;;;;;;;;;;;;;;14.27;100.00;101598.25;7301831;19;19945;-67
2023/12/19 04:14:16;;;;;;;;;;;;;;;14.29;100.00;101598.06;7291916;19;20448;-68
2023/12/19 04:16:42;;;;;;;;;;;;;;;14.26;100.00;101590.47;7301135;19;19922;-67
2023/12/19 04:19:09;;;;;;;;;;;;;;;14.23;100.00;101596.88;7306009;19;19930;-67
2023/12/19 04:21:39;;;;;;;;;;;;;;;14.25;100.00;101586.16;7295693;19;19927;-69
2023/12/19 04:24:06;;;;;;;;;;;;;;;14.24;100.00;101577.38;7299377;19;19927;-67
2023/12/19 04:26:33;;;;;;;;;;;;;;;14.26;100.00;101577.22;7290578;19;20485;-67
2023/12/19 04:29:00;;;;;;;;;;;;;;;14.27;100.00;101582.38;7297411;19;20927;-67
2023/12/19 04:31:27;;;;;;;;;;;;;;;14.27;100.00;101584.19;7294659;19;21174;-67
2023/12/19 04:33:54;;;;;;;;;;;;;;;14.27;100.00;101585.03;7297713;19;19947;-68
2023/12/19 04:36:25;;;;;;;;;;;;;;;14.28;100.00;101577.88;7293911;19;19926;-68
2023/12/19 04:38:52;;;;;;;;;;;;;;;14.29;100.00;101574.25;7299738;19;19919;-66
2023/12/19 04:41:18;;;;;;;;;;;;;;;14.30;100.00;101566.16;7304789;19;20419;-68
2023/12/19 04:43:45;;;;;;;;;;;;;;;14.28;100.00;101562.81;7294014;19;20291;-67
2023/12/19 04:46:12;;;;;;;;;;;;;;;14.31;100.00;101564.34;7301220;19;19923;-67
2023/12/19 04:48:42;;;;;;;;;;;;;;;14.31;100.00;101567.00;7301934;19;19919;-69
2023/12/19 04:51:16;;;;;;;;;;;;;;;14.31;100.00;101556.41;7287988;19;20003;-69
2023/12/19 04:53:43;;;;;;;;;;;;;;;14.32;100.00;101553.59;7282811;19;19923;-67
2023/12/19 04:56:11;;;;;;;;;;;;;;;14.35;100.00;101544.50;7286157;19;19922;-67
2023/12/19 04:58:38;;;;;;;;;;;;;;;14.36;100.00;101549.69;7302811;19;20920;-67
2023/12/19 05:01:05;;;;;;;;;;;;;;;14.35;100.00;101541.84;7300544;19;19930;-68
2023/12/19 05:03:33;;;;;;;;;;;;;;;14.32;100.00;101532.44;7309481;19;20286;-67
2023/12/19 05:06:00;;;;;;;;;;;;;;;14.30;100.00;101539.69;7305312;19;19934;-67
2023/12/19 05:08:27;;;;;;;;;;;;;;;14.31;100.00;101527.28;7281814;19;20367;-67
2023/12/19 05:10:54;;;;;;;;;;;;;;;14.34;100.00;101541.03;7302789;19;19951;-67
2023/12/19 05:13:21;;;;;;;;;;;;;;;14.35;100.00;101531.25;7302933;19;19926;-67
2023/12/19 05:15:49;;;;;;;;;;;;;;;14.35;100.00;101533.91;7314107;19;19919;-68
2023/12/19 05:18:18;;;;;;;;;;;;;;;14.36;100.00;101547.03;7304663;19;20595;-67
2023/12/19 05:20:45;;;;;;;;;;;;;;;14.33;100.00;101557.06;7280873;19;19934;-67
2023/12/19 05:23:12;;;;;;;;;;;;;;;14.35;100.00;101542.69;7294522;19;19922;-67
2023/12/19 05:25:39;;;;;;;;;;;;;;;14.32;100.00;101548.31;7291534;19;20022;-67
2023/12/19 05:28:05;;;;;;;;;;;;;;;14.31;100.00;101544.00;7303100;19;19919;-68
2023/12/19 05:30:32;;;;;;;;;;;;;;;14.29;100.00;101537.19;7292707;19;19982;-68
2023/12/19 05:32:59;;;;;;;;;;;;;;;14.29;100.00;101526.59;7294250;19;19919;-68
2023/12/19 05:35:26;;;;;;;;;;;;;;;14.27;100.00;101524.13;7296019;19;20520;-68
2023/12/19 05:37:53;;;;;;;;;;;;;;;14.28;100.00;101517.81;7283527;19;19922;-66
2023/12/19 05:40:23;;;;;;;;;;;;;;;14.30;100.00;101522.97;7298932;19;21813;-67
2023/12/19 05:42:54;;;;;;;;;;;;;;;14.27;100.00;101518.84;7295572;19;20262;-67
2023/12/19 05:45:21;;;;;;;;;;;;;;;14.24;100.00;101527.06;7296162;19;20501;-68
2023/12/19 05:47:48;;;;;;;;;;;;;;;14.22;100.00;101521.09;7286758;19;20664;-67
2023/12/19 05:50:16;;;;;;;;;;;;;;;14.21;100.00;101518.63;7289406;19;19923;-67
2023/12/19 05:52:47;;;;;;;;;;;;;;;14.23;100.00;101511.34;7304527;19;20430;-68
2023/12/19 05:55:14;;;;;;;;;;;;;;;14.22;100.00;101521.09;7300334;19;20301;-68
2023/12/19 05:57:41;;;;;;;;;;;;;;;14.21;100.00;101519.47;7292561;19;19923;-67
2023/12/19 06:00:10;;;;;;;;;;;;;;;14.24;100.00;101510.38;7297587;19;20349;-67
2023/12/19 06:02:42;;;;;;;;;;;;;;;14.26;100.00;101509.22;7302220;19;19922;-67
2023/12/19 06:05:10;;;;;;;;;;;;;;;14.29;100.00;101513.38;7292472;19;19914;-70
2023/12/19 06:07:37;;;;;;;;;;;;;;;14.27;100.00;101510.91;7303375;19;20266;-67
2023/12/19 06:10:24;;;;;;;;;;;;;;;14.28;100.00;101519.63;7302012;19;19943;-67
2023/12/19 06:12:51;;;;;;;;;;;;;;;14.28;100.00;101519.63;7314342;19;21012;-67
2023/12/19 06:15:18;;;;;;;;;;;;;;;14.30;100.00;101515.03;7308318;19;19971;-67
2023/12/19 06:17:48;;;;;;;;;;;;;;;14.28;100.00;101515.19;7299627;19;20247;-67
2023/12/19 06:20:21;;;;;;;;;;;;;;;14.27;100.00;101510.91;7309292;19;19914;-67
2023/12/19 06:22:49;;;;;;;;;;;;;;;14.29;100.00;101508.06;7283476;19;19923;-67
2023/12/19 06:25:15;;;;;;;;;;;;;;;14.29;100.00;101500.97;7296205;19;22048;-67
2023/12/19 06:27:43;;;;;;;;;;;;;;;14.24;100.00;101508.56;7288682;19;19998;-68
2023/12/19 06:30:15;;;;;;;;;;;;;;;14.24;100.00;101503.25;7292439;19;20034;-67
2023/12/19 06:32:54;;;;;;;;;;;;;;;14.24;100.00;101513.00;7292210;19;21486;-67
2023/12/19 06:35:21;;;;;;;;;;;;;;;14.26;100.00;101505.75;7290712;19;19927;-67
2023/12/19 06:37:48;;;;;;;;;;;;;;;14.25;100.00;101501.44;7294794;19;20776;-68
2023/12/19 06:40:17;;;;;;;;;;;;;;;14.25;100.00;101504.09;7296320;19;19958;-68
2023/12/19 06:42:44;;;;;;;;;;;;;;;14.22;100.00;101497.28;7297314;19;19919;-67
2023/12/19 06:45:12;;;;;;;;;;;;;;;14.24;100.00;101505.06;7302219;19;19926;-67
2023/12/19 06:47:39;;;;;;;;;;;;;;;14.22;100.00;101493.84;7298870;19;20873;-68
2023/12/19 06:50:07;;;;;;;;;;;;;;;14.25;100.00;101494.34;7301963;19;20513;-67
2023/12/19 06:52:34;;;;;;;;;;;;;;;14.28;100.00;101491.34;7297257;19;20002;-68
2023/12/19 06:55:00;;;;;;;;;;;;;;;14.29;100.00;101492.19;7299134;19;20635;-67
2023/12/19 06:57:28;;;;;;;;;;;;;;;14.26;100.00;101485.41;7301914;19;19919;-67
2023/12/19 06:59:55;;;;;;;;;;;;;;;14.27;100.00;101481.78;7305508;19;19930;-67
2023/12/19 07:02:21;;;;;;;;;;;;;;;14.29;100.00;101481.59;7308509;19;19982;-68
2023/12/19 07:04:48;;;;;;;;;;;;;;;14.31;100.00;101482.28;7299713;19;19919;-68
2023/12/19 07:07:15;;;;;;;;;;;;;;;14.31;100.00;101471.69;7302607;19;19927;-67
2023/12/19 07:09:42;;;;;;;;;;;;;;;14.30;100.00;101475.31;7289814;19;20363;-69
2023/12/19 07:12:09;;;;;;;;;;;;;;;14.31;100.00;101474.34;7308541;19;19979;-67
2023/12/19 07:14:37;;;;;;;;;;;;;;;14.32;100.00;101470.69;7310805;19;19922;-68
2023/12/19 07:17:04;;;;;;;;;;;;;;;14.39;100.00;101463.78;7298375;19;19915;-68
2023/12/19 07:19:30;;;;;;;;;;;;;;;14.42;100.00;101468.78;7305843;19;20379;-69
2023/12/19 07:21:58;;;;;;;;;;;;;;;14.44;100.00;101469.41;7305614;19;19949;-68
2023/12/19 07:24:24;;;;;;;;;;;;;;;14.43;100.00;101463.28;7300152;19;19948;-68
2023/12/19 07:26:54;;;;;;;;;;;;;;;14.43;100.00;101457.16;7309893;19;19926;-67
2023/12/19 07:29:21;;;;;;;;;;;;;;;14.41;100.00;101449.41;7290689;19;19919;-67
2023/12/19 07:31:48;;;;;;;;;;;;;;;14.42;100.00;101458.19;7283776;19;20197;-67
2023/12/19 07:34:15;;;;;;;;;;;;;;;14.43;100.00;101447.41;7303288;19;19929;-68
2023/12/19 07:36:42;;;;;;;;;;;;;;;14.42;100.00;101442.28;7308714;19;20315;-67
2023/12/19 07:39:12;;;;;;;;;;;;;;;14.45;100.00;101450.72;7293013;19;20210;-68
2023/12/19 07:41:39;;;;;;;;;;;;;;;14.46;100.00;101447.09;7293618;19;19982;-68
2023/12/19 07:44:09;;;;;;;;;;;;;;;14.46;100.00;101440.97;7294667;19;20610;-69
2023/12/19 07:46:42;;;;;;;;;;;;;;;14.44;100.00;101441.13;7304767;19;20518;-71
2023/12/19 07:49:14;;;;;;;;;;;;;;;14.45;100.00;101439.31;7300962;19;20486;-68
2023/12/19 07:51:41;;;;;;;;;;;;;;;14.43;100.00;101436.81;7295940;19;19942;-68
2023/12/19 07:54:08;;;;;;;;;;;;;;;14.46;100.00;101439.16;7298225;19;20553;-68
2023/12/19 07:56:39;;;;;;;;;;;;;;;14.46;100.00;101436.50;7311044;19;20607;-68
2023/12/19 07:59:06;;;;;;;;;;;;;;;14.47;100.00;101446.13;7306386;19;19922;-69
2023/12/19 08:01:33;;;;;;;;;;;;;;;14.49;100.00;101441.47;7298875;19;20039;-67
2023/12/19 08:04:00;;;;;;;;;;;;;;;14.50;100.00;101435.19;7299805;19;19929;-68
2023/12/19 08:06:27;;;;;;;;;;;;;;;14.47;100.00;101427.59;7299922;19;19963;-68
2023/12/19 08:08:54;;;;;;;;;;;;;;;14.47;100.00;101429.41;7298629;19;20026;-69
2023/12/19 08:11:21;;;;;;;;;;;;;;;14.49;100.00;101435.34;7291999;19;20014;-70
2023/12/19 08:13:50;;;;;;;;;;;;;;;14.51;100.00;101425.41;7300804;19;20474;-67
2023/12/19 08:16:17;;;;;;;;;;;;;;;14.50;100.00;101424.59;7294865;19;20629;-68
2023/12/19 08:18:44;;;;;;;;;;;;;;;14.51;100.00;101430.72;7290952;19;19994;-67
2023/12/19 08:21:12;;;;;;;;;;;;;;;14.47;100.00;101427.59;7283204;19;20447;-68
2023/12/19 08:23:40;;;;;;;;;;;;;;;14.49;100.00;101419.44;7292034;19;19922;-67
2023/12/19 08:26:10;;;;;;;;;;;;;;;14.51;100.00;101409.53;7293809;19;19914;-69
2023/12/19 08:28:37;;;;;;;;;;;;;;;14.49;100.00;101420.28;7305512;19;20433;-69
2023/12/19 08:31:04;;;;;;;;;;;;;;;14.50;100.00;101414.00;7292718;19;20803;-69
2023/12/19 08:33:31;;;;;;;;;;;;;;;14.47;100.00;101409.03;7282406;19;19927;-68
2023/12/19 08:35:58;;;;;;;;;;;;;;;14.48;100.00;101415.97;7295892;19;19919;-68
2023/12/19 08:38:24;;;;;;;;;;;;;;;14.50;100.00;101407.88;7295560;19;19987;-67
2023/12/19 08:40:51;;;;;;;;;;;;;;;14.49;100.00;101404.38;7299633;19;20449;-68
2023/12/19 08:43:20;;;;;;;;;;;;;;;14.50;100.00;101408.69;7301708;19;20909;-68
2023/12/19 08:45:49;;;;;;;;;;;;;;;14.49;100.00;101403.56;7301138;19;20464;-67
2023/12/19 08:48:17;;;;;;;;;;;;;;;14.49;100.00;101406.22;7287237;19;19923;-67
2023/12/19 08:50:44;;;;;;;;;;;;;;;14.49;100.00;101400.91;7287093;19;20352;-67
2023/12/19 08:53:12;;;;;;;;;;;;;;;14.46;100.00;101399.44;7301501;19;19918;-68
2023/12/19 08:55:42;;;;;;;;;;;;;;;14.47;100.00;101393.16;7291815;19;22462;-68
2023/12/19 08:58:09;;;;;;;;;;;;;;;14.47;100.00;101389.69;7307700;19;21335;-68
2023/12/19 09:00:37;;;;;;;;;;;;;;;14.48;100.00;101388.66;7288071;19;19923;-68
2023/12/19 09:03:05;;;;;;;;;;;;;;;14.49;100.00;101396.44;7265352;19;20506;-68
2023/12/19 09:05:34;;;;;;;;;;;;;;;14.51;100.00;101399.78;7288946;19;20374;-67
2023/12/19 09:08:01;;;;;;;;;;;;;;;14.49;100.00;101403.56;7300054;19;19919;-67
2023/12/19 09:10:29;;;;;;;;;;;;;;;14.48;100.00;101404.53;7279947;19;20284;-68
2023/12/19 09:13:00;;;;;;;;;;;;;;;14.49;100.00;101406.22;7288756;19;19922;-67
2023/12/19 09:15:28;;;;;;;;;;;;;;;14.54;100.00;101395.94;7291330;19;20523;-67
2023/12/19 09:17:55;;;;;;;;;;;;;;;14.53;100.00;101395.13;7282845;19;19990;-67
2023/12/19 09:20:25;;;;;;;;;;;;;;;14.53;100.00;101387.19;7297686;19;20605;-69
2023/12/19 09:22:55;;;;;;;;;;;;;;;14.52;100.00;101388.19;7285428;19;20202;-68
2023/12/19 09:25:25;;;;;;;;;;;;;;;14.56;100.00;101386.03;7281857;19;19919;-68
2023/12/19 09:27:52;;;;;;;;;;;;;;;14.59;100.00;101385.69;7306884;19;19923;-68
2023/12/19 09:30:20;;;;;;;;;;;;;;;14.60;100.00;101381.22;7283260;19;20126;-68
2023/12/19 09:32:51;;;;;;;;;;;;;;;14.58;100.00;101383.22;7295483;19;21574;-67
2023/12/19 09:35:18;;;;;;;;;;;;;;;14.54;100.00;101382.72;7297629;19;19943;-68
2023/12/19 09:37:46;;;;;;;;;;;;;;;14.54;100.00;101374.75;7294376;19;20002;-68
2023/12/19 09:40:15;;;;;;;;;;;;;;;14.55;100.00;101379.91;7304830;19;20015;-68
2023/12/19 09:42:47;;;;;;;;;;;;;;;14.53;100.00;101368.63;7292383;19;20222;-68
2023/12/19 09:45:15;;;;;;;;;;;;;;;14.53;100.00;101373.94;7297521;19;19930;-68
2023/12/19 09:47:48;;;;;;;;;;;;;;;14.51;100.00;101373.28;7297997;19;20197;-67
2023/12/19 09:50:25;;;;;;;;;;;;;;;14.47;100.00;101387.03;7288871;19;20023;-67
2023/12/19 09:52:56;;;;;;;;;;;;;;;14.49;100.00;101382.38;7286993;19;21281;-68
2023/12/19 09:55:26;;;;;;;;;;;;;;;14.47;100.00;101379.09;7293241;19;19986;-68
2023/12/19 09:57:54;;;;;;;;;;;;;;;14.44;100.00;101377.56;7291811;19;19967;-67
2023/12/19 10:00:25;;;;;;;;;;;;;;;14.33;100.00;101377.03;7298609;19;19915;-67
2023/12/19 10:02:52;;;;;;;;;;;;;;;14.23;100.00;101374.53;7292898;19;19922;-68
2023/12/19 10:05:19;;;;;;;;;;;;;;;14.18;100.00;101376.00;7285088;19;21235;-68
2023/12/19 10:07:47;;;;;;;;;;;;;;;14.13;100.00;101381.78;7290424;19;21100;-69
2023/12/19 10:10:15;;;;;;;;;;;;;;;14.10;100.00;101375.03;7283399;19;20455;-67
2023/12/19 10:12:49;;;;;;;;;;;;;;;14.10;100.00;101377.66;7299258;19;20408;-67
2023/12/19 10:15:25;;;;;;;;;;;;;;;14.04;100.00;101378.31;7285402;19;20006;-67
2023/12/19 10:18:03;;;;;;;;;;;;;;;14.04;100.00;101380.13;7306951;19;20163;-67
2023/12/19 10:20:30;;;;;;;;;;;;;;;14.00;100.00;101384.91;7299161;19;19919;-67
2023/12/19 10:23:01;;;;;;;;;;;;;;;13.95;100.00;101395.16;7299383;19;19923;-67
2023/12/19 10:25:28;;;;;;;;;;;;;;;13.94;100.00;101393.50;7294421;19;19994;-67
2023/12/19 10:28:08;;;;;;;;;;;;;;;13.95;100.00;101396.97;7315091;19;19918;-68
2023/12/19 10:30:36;;;;;;;;;;;;;;;13.93;100.00;101399.75;7306758;19;19918;-67
2023/12/19 10:33:07;;;;;;;;;;;;;;;13.89;100.00;101405.53;7298668;19;20257;-67
2023/12/19 10:35:34;;;;;;;;;;;;;;;13.86;100.00;101409.34;7291241;19;19923;-68
2023/12/19 10:38:01;;;;;;;;;;;;;;;13.81;100.00;101419.59;7300944;19;19923;-68
2023/12/19 10:40:28;;;;;;;;;;;;;;;13.80;100.00;101430.31;7287722;19;19992;-67
2023/12/19 10:43:02;;;;;;;;;;;;;;;13.76;100.00;101428.97;7294573;19;19933;-67
2023/12/19 10:45:30;;;;;;;;;;;;;;;13.63;100.00;101430.22;7299768;19;20384;-68
2023/12/19 10:47:57;;;;;;;;;;;;;;;13.60;100.00;101441.13;7298475;19;20254;-67
2023/12/19 10:50:27;;;;;;;;;;;;;;;13.43;100.00;101446.47;7296425;19;20153;-68
2023/12/19 10:53:03;;;;;;;;;;;;;;;13.32;100.00;101444.91;7287090;19;19922;-65
2023/12/19 10:55:43;;;;;;;;;;;;;;;13.29;100.00;101434.66;7300448;19;19927;-68
2023/12/19 10:58:12;;;;;;;;;;;;;;;13.22;100.00;101431.81;7303826;19;20331;-67
2023/12/19 11:00:41;;;;;;;;;;;;;;;13.19;100.00;101426.84;7295803;19;19919;-67
2023/12/19 11:03:23;;;;;;;;;;;;;;;13.15;100.00;101422.84;7306526;19;19983;-67
2023/12/19 11:05:52;;;;;;;;;;;;;;;13.18;100.00;101419.06;7305156;19;19938;-67
2023/12/19 11:08:19;;;;;;;;;;;;;;;13.15;100.00;101414.94;7276228;19;19922;-68
2023/12/19 11:11:03;;;;;;;;;;;;;;;13.14;100.00;101418.53;7285146;19;20646;-68
2023/12/19 11:13:32;;;;;;;;;;;;;;;13.15;100.00;101417.56;7284457;19;20336;-67
2023/12/19 11:16:05;;;;;;;;;;;;;;;13.16;100.00;101419.19;7284826;19;19915;-67
2023/12/19 11:18:51;;;;;;;;;;;;;;;13.18;100.00;101414.59;7293707;19;19914;-67
2023/12/19 11:21:27;;;;;;;;;;;;;;;13.18;100.00;101411.97;7296905;19;19921;-68
2023/12/19 11:23:53;;;;;;;;;;;;;;;13.18;100.00;101406.69;7290538;19;20289;-68
2023/12/19 11:26:35;;;;;;;;;;;;;;;13.20;100.00;101415.28;7292638;19;19997;-69
2023/12/19 11:29:01;;;;;;;;;;;;;;;13.19;100.00;101420.72;7298984;19;19929;-67
2023/12/19 11:31:32;;;;;;;;;;;;;;;13.16;100.00;101413.09;7304497;19;19926;-67
2023/12/19 11:34:03;;;;;;;;;;;;;;;13.18;100.00;101416.41;7304711;19;19915;-68
2023/12/19 11:36:30;;;;;;;;;;;;;;;13.17;100.00;101417.41;7292412;19;22175;-67
2023/12/19 11:39:16;;;;;;;;;;;;;;;13.12;100.00;101427.59;7307456;19;21247;-69
2023/12/19 11:41:49;;;;;;;;;;;;;;;13.09;100.00;101419.97;7304743;19;19998;-68
2023/12/19 11:44:32;;;;;;;;;;;;;;;13.09;100.00;101419.97;7290230;19;19926;-68
2023/12/19 11:47:17;;;;;;;;;;;;;;;13.10;100.00;101418.97;7310228;19;19927;-68
2023/12/19 11:49:47;;;;;;;;;;;;;;;13.11;100.00;101415.34;7290027;19;19922;-68
2023/12/19 11:52:33;;;;;;;;;;;;;;;13.08;100.00;101416.47;7311114;19;20248;-68
2023/12/19 11:55:01;;;;;;;;;;;;;;;13.09;100.00;101402.28;7292993;19;19960;-69
2023/12/19 11:57:28;;;;;;;;;;;;;;;13.06;100.00;101399.94;7302994;19;19915;-68
2023/12/19 11:59:56;;;;;;;;;;;;;;;13.04;100.00;101407.22;7287540;19;19922;-67
2023/12/19 12:02:27;;;;;;;;;;;;;;;13.02;100.00;101403.88;7305115;19;19926;-67
2023/12/19 12:05:07;;;;;;;;;;;;;;;13.04;100.00;101409.84;7291154;19;21288;-67
2023/12/19 12:08:01;;;;;;;;;;;;;;;13.04;100.00;101401.94;7296403;19;20300;-68
2023/12/19 12:10:27;;;;;;;;;;;;;;;13.07;100.00;101396.31;7296753;19;19923;-67
2023/12/19 12:13:04;;;;;;;;;;;;;;;13.08;100.00;101387.41;7295796;19;20179;-69
2023/12/19 12:15:37;;;;;;;;;;;;;;;13.08;100.00;101376.84;7294586;19;20429;-67
2023/12/19 12:18:06;;;;;;;;;;;;;;;13.10;100.00;101382.81;7279335;19;19915;-68
2023/12/19 12:20:36;;;;;;;;;;;;;;;13.12;100.00;101382.69;7288981;19;20355;-68
2023/12/19 12:23:20;;;;;;;;;;;;;;;13.13;100.00;101387.81;7315088;19;19938;-68
2023/12/19 12:25:54;;;;;;;;;;;;;;;13.11;100.00;101400.34;7301405;19;20658;-67
2023/12/19 12:28:26;;;;;;;;;;;;;;;13.10;100.00;101409.25;7294195;19;20006;-67
2023/12/19 12:30:54;;;;;;;;;;;;;;;13.10;100.00;101409.25;7286594;19;19940;-67
2023/12/19 12:33:25;;;;;;;;;;;;;;;13.10;100.00;101419.81;7277899;19;20057;-67
2023/12/19 12:35:52;;;;;;;;;;;;;;;13.12;100.00;101427.59;7287346;19;19922;-68